Atlas, Illinois
Current Conditions -  °F | °C
As of 8:35 PM on Friday 24 Oct 2014 (Local Time) from KPPQ Reporting Station
Clear Clear  
Wind Chill: 64°   Ceiling: Unl
Heat Index: 64°   Visibility: 10mi
Dew Point: 53°   Wind: 8mph
Humidity: 67%   Direction: 190°S
Pressure: 29.96"   Gusts: NA
Location:  39.5365°N, 91.0118°W
Report Text: KPPQ 250135Z AUTO 19007KT 10SM CLR 18/12 A2996 RMK AO2 T01800117
Loading
Personal Weather Stations






























Interactive Weather Map New forecast layout! Learn more

10-Day Weather Forecast

Advertisements
Track Severe Weather on mobile